Colfax, WA (99111)

2:29 PM PST on December 20, 2014 (GMT -0800)
Barclay Ridge | Change Station
CLOSE
Current Station
Personal Weather Station
Location: Pullman, WA
Elevation: 2644 ft
Nearby Weather Stations

Elev 2644 ft 46.73 °N, 117.21 °W | Updated 6 minutes ago

Rain
Rain
39.6 °F
Feels Like 33 °F
N
11.4
Wind Variable Wind from SSE

Today
High -- | Low -- °F
--% Chance of Precip.
Yesterday
High -- | Low -- °F
Precip. -- in
7:31 AM 4:02 PM
Waning Crescent, 2% visible
Pressure 29.80 in
Visibility 5.0 miles
Clouds Overcast 2900 ft
Windchill 33 °F
Dew Point 38 °F
Humidity 92%
Rainfall 0.05 in
Snow Depth Not available.
UV 0 out of 12
Pollen .10 out of 12
Air Quality Not available.
Flu Activity Not available.
METAR KPUW 202153Z AUTO 13011KT 5SM -RA BR OVC029 05/03 A2976 RMK AO2 RAE07B23 SLP091 P0001 T00500028

More Conditions Fewer Conditions

Pressure 29.80 in
Visibility 5.0 miles
Clouds Overcast 2900 ft
Windchill 33 °F
Dew Point 38 °F
Humidity 92%
Rainfall 0.05 in
Snow Depth Not available.
UV 0 out of 12
Pollen .10 out of 12
Air Quality Not available.
Flu Activity Not available.
METAR KPUW 202153Z AUTO 13011KT 5SM -RA BR OVC029 05/03 A2976 RMK AO2 RAE07B23 SLP091 P0001 T00500028

More Conditions Fewer Conditions

10-Day Weather Forecast

Almanac

Astronomy

Dec. 20, 2014 Rise Set
Actual Time
Civil Twilight
Nautical Twilight
Astronomical Twilight
Moon
Length of Visible Light
Length of Day
Tomorrow will be .
, % of the Moon is Illuminated

Today's Extremes

State Highs State Lows

Community

WunderPhotos

Upload Photos

1,779,291 photos uploaded!

WunderBlogs® & News

Nearby

Air Quality

  Air Quality AQ Index Pollutant
Not available.

Snow Depth

Station Depth Elevation

Earthquake Activity

City Distance Mag. Time & Date
Minimum magnitude displayed is 2.5.

Coastal Water Temperatures

Place Temperature

Nearby Weather Stations